createdAt,value
2023-02-11T00:01:10.394Z,57.63
2023-02-11T00:03:39.010Z,77.57
2023-02-11T00:06:09.812Z,69.10
2023-02-11T00:08:38.535Z,72.63
2023-02-11T00:11:05.968Z,111.27
2023-02-11T00:13:33.347Z,112.83
2023-02-11T00:16:00.545Z,107.40
2023-02-11T00:18:28.988Z,96.67
2023-02-11T00:20:56.449Z,82.03
2023-02-11T00:23:23.652Z,78.47
2023-02-11T00:25:51.885Z,69.57
2023-02-11T00:28:19.077Z,83.87
2023-02-11T00:30:54.116Z,73.57
2023-02-11T00:33:21.707Z,93.37
2023-02-11T00:35:49.077Z,86.13
2023-02-11T00:38:17.169Z,86.50
2023-02-11T00:40:44.218Z,87.63
2023-02-11T00:43:11.485Z,104.83
2023-02-11T00:45:38.760Z,171.80
2023-02-11T00:48:06.110Z,177.70
2023-02-11T00:50:33.184Z,149.50
2023-02-11T00:53:01.030Z,165.17
2023-02-11T00:55:29.680Z,165.00
2023-02-11T00:58:00.221Z,153.23
2023-02-11T01:00:28.289Z,138.77
2023-02-11T01:02:56.100Z,139.77
2023-02-11T01:05:23.233Z,118.77
2023-02-11T01:07:50.910Z,133.17
2023-02-11T01:10:18.009Z,115.80
2023-02-11T01:12:46.355Z,129.93
2023-02-11T01:15:17.431Z,131.57
2023-02-11T01:17:51.872Z,126.93
2023-02-11T01:20:24.148Z,102.77
2023-02-11T01:22:51.295Z,97.93
2023-02-11T01:25:18.487Z,111.53
2023-02-11T01:27:45.688Z,124.10
2023-02-11T01:30:14.446Z,106.93
2023-02-11T01:32:41.786Z,126.43
2023-02-11T01:35:09.198Z,132.67
2023-02-11T01:37:36.906Z,98.50
2023-02-11T01:40:07.043Z,152.77
2023-02-11T01:42:35.223Z,107.30
2023-02-11T01:45:57.800Z,110.40
2023-02-11T01:48:29.623Z,147.47
2023-02-11T01:51:29.448Z,139.07
2023-02-11T01:54:17.136Z,109.77
2023-02-11T01:59:52.735Z,107.93
2023-02-11T02:02:29.821Z,113.07
2023-02-11T02:05:15.688Z,122.43
2023-02-11T02:07:50.248Z,143.67
2023-02-11T02:10:23.262Z,152.47
2023-02-11T02:12:50.866Z,136.07
2023-02-11T02:15:23.557Z,118.87
2023-02-11T02:18:00.485Z,109.90
2023-02-11T02:20:56.694Z,109.43
2023-02-11T02:23:52.628Z,91.50
2023-02-11T02:26:25.961Z,66.00
2023-02-11T02:29:32.242Z,63.83
2023-02-11T02:32:23.745Z,62.47
2023-02-11T02:35:10.595Z,62.67
2023-02-11T02:38:08.828Z,53.83
2023-02-11T02:40:50.019Z,64.68
2023-02-11T02:43:19.004Z,52.27
2023-02-11T02:45:46.073Z,58.10
2023-02-11T02:48:33.559Z,60.63
2023-02-11T02:51:30.042Z,59.50
2023-02-11T02:54:30.200Z,59.40
2023-02-11T02:57:30.976Z,62.17
2023-02-11T03:00:10.623Z,55.87
2023-02-11T03:02:50.850Z,60.23
2023-02-11T03:05:22.515Z,62.87
2023-02-11T03:07:52.669Z,59.83
2023-02-11T03:10:31.836Z,59.23
2023-02-11T03:13:01.198Z,62.70
2023-02-11T03:15:33.078Z,60.13
2023-02-11T03:18:02.282Z,67.50
2023-02-11T03:20:33.567Z,66.13
2023-02-11T03:23:11.310Z,66.27
2023-02-11T03:25:49.002Z,59.43
2023-02-11T03:28:26.563Z,64.93
2023-02-11T03:31:02.999Z,62.03
2023-02-11T03:33:47.473Z,58.70
2023-02-11T03:36:21.287Z,66.10
2023-02-11T03:38:53.308Z,70.80
2023-02-11T03:41:24.130Z,67.90
2023-02-11T03:43:56.393Z,71.27
2023-02-11T03:46:31.887Z,69.37
2023-02-11T03:49:07.911Z,75.90
2023-02-11T03:51:37.091Z,72.77
2023-02-11T03:54:09.591Z,71.97
2023-02-11T03:56:49.235Z,67.07
2023-02-11T03:59:17.582Z,68.77
2023-02-11T04:01:44.631Z,62.80
2023-02-11T04:04:12.060Z,62.70
2023-02-11T04:06:39.534Z,57.97
2023-02-11T04:09:07.352Z,61.93
2023-02-11T04:11:34.439Z,82.43
2023-02-11T04:14:01.563Z,78.07
2023-02-11T04:16:30.480Z,78.20
2023-02-11T04:18:58.389Z,65.87
2023-02-11T04:21:25.402Z,82.80
2023-02-11T04:23:52.516Z,65.60
2023-02-11T04:26:19.627Z,66.93
2023-02-11T04:28:46.707Z,73.33
2023-02-11T04:31:13.904Z,66.03
2023-02-11T04:33:41.160Z,60.30
2023-02-11T04:36:08.907Z,72.90
2023-02-11T04:38:35.963Z,86.03
2023-02-11T04:41:03.074Z,102.23
2023-02-11T04:43:30.041Z,91.47
2023-02-11T04:45:58.894Z,101.87
2023-02-11T04:48:26.524Z,113.13
2023-02-11T04:50:53.615Z,91.57
2023-02-11T04:53:20.801Z,104.27
2023-02-11T04:55:51.368Z,95.23
2023-02-11T04:58:19.940Z,75.27
2023-02-11T05:00:47.602Z,87.87
2023-02-11T05:03:14.769Z,100.20
2023-02-11T05:05:42.908Z,75.60
2023-02-11T05:08:11.322Z,76.63
2023-02-11T05:10:38.502Z,61.43
2023-02-11T05:13:05.584Z,77.93
2023-02-11T05:15:32.789Z,94.10
2023-02-11T05:17:59.879Z,67.57
2023-02-11T05:20:26.894Z,78.20
2023-02-11T05:22:53.916Z,77.83
2023-02-11T05:25:20.950Z,94.47
2023-02-11T05:27:47.991Z,93.47
2023-02-11T05:30:15.060Z,83.33
2023-02-11T05:32:42.203Z,68.87
2023-02-11T05:35:09.780Z,76.50
2023-02-11T05:37:36.839Z,74.13
2023-02-11T05:40:04.360Z,90.57
2023-02-11T05:42:31.331Z,116.70
2023-02-11T05:44:58.469Z,106.40
2023-02-11T05:47:25.661Z,105.13
2023-02-11T05:49:53.828Z,100.80
2023-02-11T05:52:22.227Z,161.13
2023-02-11T05:54:49.256Z,106.73
2023-02-11T05:57:17.427Z,112.03
2023-02-11T05:59:44.504Z,121.53
2023-02-11T06:02:11.700Z,104.63
2023-02-11T06:04:39.009Z,80.57
2023-02-11T06:07:06.038Z,93.40
2023-02-11T06:09:33.110Z,88.03
2023-02-11T06:12:00.130Z,80.63
2023-02-11T06:14:27.240Z,90.23
2023-02-11T06:16:54.359Z,78.43
2023-02-11T06:19:21.344Z,89.57
2023-02-11T06:21:48.426Z,53.50
2023-02-11T06:24:17.405Z,62.63
2023-02-11T06:26:46.410Z,62.27
2023-02-11T06:29:14.178Z,61.33
2023-02-11T06:31:41.562Z,56.63
2023-02-11T06:34:10.616Z,65.20
2023-02-11T06:36:39.780Z,54.90
2023-02-11T06:39:07.928Z,55.43
2023-02-11T06:41:35.036Z,54.83
2023-02-11T06:44:02.142Z,56.67
2023-02-11T06:46:29.132Z,49.60
2023-02-11T06:48:56.246Z,47.27
2023-02-11T06:51:23.712Z,60.10
2023-02-11T06:53:50.707Z,70.60
2023-02-11T06:56:20.335Z,77.37
2023-02-11T06:58:48.009Z,76.90
2023-02-11T07:01:16.647Z,77.17
2023-02-11T07:03:45.346Z,62.67
2023-02-11T07:06:15.131Z,30.87
2023-02-11T07:08:43.307Z,28.73
2023-02-11T07:11:19.846Z,43.70
2023-02-11T07:13:48.045Z,48.42
2023-02-11T07:16:17.232Z,37.93
2023-02-11T07:18:45.894Z,50.20
2023-02-11T07:21:14.718Z,49.33
2023-02-11T07:23:42.374Z,46.30
2023-02-11T07:26:13.013Z,51.57
2023-02-11T07:28:41.538Z,59.07
2023-02-11T07:31:10.356Z,49.47
2023-02-11T07:33:38.384Z,58.17
2023-02-11T07:36:07.671Z,65.03
2023-02-11T07:38:35.772Z,60.43
2023-02-11T07:41:05.752Z,64.50
2023-02-11T07:43:33.577Z,59.13
2023-02-11T07:46:04.829Z,66.40
2023-02-11T07:48:32.263Z,62.63
2023-02-11T07:51:24.526Z,58.37
2023-02-11T07:53:52.333Z,62.93
2023-02-11T07:56:21.077Z,52.43
2023-02-11T07:58:48.434Z,52.73
2023-02-11T08:01:27.334Z,57.37
2023-02-11T08:03:56.208Z,50.50
2023-02-11T08:06:26.153Z,51.97
2023-02-11T08:08:53.763Z,34.37
2023-02-11T08:11:28.588Z,54.93
2023-02-11T08:13:57.016Z,46.97
2023-02-11T08:16:28.320Z,44.33
2023-02-11T08:19:00.870Z,41.43
2023-02-11T08:21:28.814Z,39.57
2023-02-11T08:23:56.775Z,44.93
2023-02-11T08:26:29.400Z,33.67
2023-02-11T08:29:01.350Z,33.30
2023-02-11T08:31:37.768Z,38.53
2023-02-11T08:34:05.451Z,36.20
2023-02-11T08:36:34.823Z,39.60
2023-02-11T08:39:17.960Z,39.43
2023-02-11T08:41:49.111Z,37.20
2023-02-11T08:44:17.225Z,29.33
2023-02-11T08:46:44.185Z,40.47
2023-02-11T08:49:11.947Z,35.80
2023-02-11T08:51:38.912Z,34.60
2023-02-11T08:54:09.861Z,38.53
2023-02-11T08:56:38.918Z,32.93
2023-02-11T08:59:07.276Z,37.23
2023-02-11T09:01:35.168Z,33.27
2023-02-11T09:04:02.476Z,30.33
2023-02-11T09:06:30.210Z,28.53
2023-02-11T09:08:58.205Z,25.93
2023-02-11T09:11:29.909Z,30.43
2023-02-11T09:13:57.632Z,29.37
2023-02-11T09:16:28.051Z,34.33
2023-02-11T09:18:58.067Z,27.47
2023-02-11T09:21:25.145Z,28.53
2023-02-11T09:23:52.970Z,36.10
2023-02-11T09:26:23.243Z,28.10
2023-02-11T09:28:51.565Z,31.57
2023-02-11T09:31:21.759Z,28.57
2023-02-11T09:33:51.330Z,27.67
2023-02-11T09:36:21.946Z,29.07
2023-02-11T09:38:49.760Z,28.90
2023-02-11T09:41:54.952Z,23.40
2023-02-11T09:44:28.563Z,25.33
2023-02-11T09:47:02.517Z,25.83
2023-02-11T09:49:44.522Z,31.10
2023-02-11T09:52:38.458Z,30.07
2023-02-11T09:55:17.188Z,36.03
2023-02-11T09:57:44.877Z,27.30
2023-02-11T10:00:21.555Z,28.83
2023-02-11T10:03:14.454Z,26.38
2023-02-11T10:05:44.712Z,47.77
2023-02-11T10:08:29.833Z,29.50
2023-02-11T10:11:31.266Z,31.17
2023-02-11T10:14:25.646Z,40.17
2023-02-11T10:17:10.845Z,33.43
2023-02-11T10:20:07.077Z,29.50
2023-02-11T10:22:45.165Z,55.47
2023-02-11T10:25:21.945Z,37.03
2023-02-11T10:27:50.875Z,35.72
2023-02-11T10:30:27.063Z,34.10
2023-02-11T10:33:00.991Z,24.45
2023-02-11T10:35:28.418Z,28.70
2023-02-11T10:37:56.385Z,25.73
2023-02-11T10:40:27.582Z,27.90
2023-02-11T10:42:59.494Z,34.83
2023-02-11T10:45:38.991Z,32.10
2023-02-11T10:48:27.341Z,24.03
2023-02-11T10:51:14.708Z,27.37
2023-02-11T10:53:42.453Z,21.83
2023-02-11T10:56:14.659Z,29.53
2023-02-11T10:58:54.643Z,28.40
2023-02-11T11:01:24.742Z,24.67
2023-02-11T11:03:53.264Z,25.37
2023-02-11T11:06:34.145Z,25.40
2023-02-11T11:09:02.263Z,27.60
2023-02-11T11:11:29.513Z,26.37
2023-02-11T11:14:00.438Z,23.63
2023-02-11T11:16:38.396Z,24.67
2023-02-11T11:19:08.411Z,31.70
2023-02-11T11:21:42.431Z,25.00
2023-02-11T11:24:34.709Z,38.67
2023-02-11T11:27:04.630Z,34.67
2023-02-11T11:29:43.339Z,26.47
2023-02-11T11:32:47.331Z,26.80
2023-02-11T11:35:35.291Z,28.10
2023-02-11T11:38:05.256Z,28.40
2023-02-11T11:40:36.611Z,29.92
2023-02-11T11:43:05.290Z,26.73
2023-02-11T11:45:32.552Z,30.88
2023-02-11T11:48:28.740Z,30.65
2023-02-11T11:51:02.233Z,26.90
2023-02-11T11:53:44.185Z,27.77
2023-02-11T11:56:21.978Z,26.08
2023-02-11T11:58:51.016Z,27.58
2023-02-11T12:01:56.172Z,29.92
2023-02-11T12:04:37.955Z,28.05
2023-02-11T12:07:25.885Z,27.95
2023-02-11T12:09:55.887Z,34.20
2023-02-11T12:12:40.732Z,25.92
2023-02-11T12:15:55.159Z,31.80
2023-02-11T12:18:38.952Z,28.35
2023-02-11T12:21:08.991Z,24.92
2023-02-11T12:23:51.717Z,27.45
2023-02-11T12:26:23.564Z,29.48
2023-02-11T12:29:17.304Z,27.35
2023-02-11T12:32:05.640Z,24.60
2023-02-11T12:35:05.182Z,32.55
2023-02-11T12:38:08.486Z,28.38
2023-02-11T12:40:52.616Z,29.27
2023-02-11T12:43:27.911Z,28.08
2023-02-11T12:46:24.968Z,28.08
2023-02-11T12:49:07.139Z,26.98
2023-02-11T12:51:49.902Z,23.92
2023-02-11T12:54:41.611Z,27.58
2023-02-11T12:57:22.259Z,26.15
2023-02-11T13:00:19.354Z,26.42
2023-02-11T13:03:10.375Z,27.67
2023-02-11T13:05:51.562Z,26.33
2023-02-11T13:08:36.197Z,25.60
2023-02-11T13:11:14.344Z,29.73
2023-02-11T13:14:22.385Z,31.80
2023-02-11T13:16:51.223Z,27.35
2023-02-11T13:19:18.280Z,29.73
2023-02-11T13:22:30.116Z,29.60
2023-02-11T13:27:30.838Z,31.88
2023-02-11T13:30:30.404Z,29.88
2023-02-11T13:32:57.412Z,28.23
2023-02-11T13:35:57.966Z,23.85
2023-02-11T13:38:27.785Z,27.48
2023-02-11T13:41:13.746Z,26.85
2023-02-11T13:43:41.118Z,31.83
2023-02-11T13:46:11.748Z,30.20
2023-02-11T13:48:46.396Z,34.40
2023-02-11T13:51:16.766Z,26.75
2023-02-11T13:53:58.079Z,27.35
2023-02-11T13:56:40.084Z,25.67
2023-02-11T13:59:30.874Z,32.92
2023-02-11T14:02:40.300Z,24.50
2023-02-11T14:05:25.797Z,23.48
2023-02-11T14:08:42.272Z,24.67
2023-02-11T14:11:25.328Z,28.85
2023-02-11T14:13:52.364Z,23.20
2023-02-11T14:16:36.982Z,23.55
2023-02-11T14:19:06.540Z,27.02
2023-02-11T14:21:37.813Z,26.13
2023-02-11T14:24:05.156Z,31.23
2023-02-11T14:26:45.538Z,23.58
2023-02-11T14:29:14.299Z,27.65
2023-02-11T14:31:49.506Z,31.92
2023-02-11T14:34:16.545Z,25.70
2023-02-11T14:37:20.095Z,28.67
2023-02-11T14:39:55.934Z,28.77
2023-02-11T14:42:27.108Z,27.92
2023-02-11T14:44:59.015Z,35.35
2023-02-11T14:47:52.724Z,40.50
2023-02-11T14:50:25.741Z,37.70
2023-02-11T14:52:54.956Z,43.13
2023-02-11T14:55:43.416Z,34.13
2023-02-11T14:58:19.577Z,35.78
2023-02-11T15:01:01.731Z,41.58
2023-02-11T15:03:35.870Z,51.47
2023-02-11T15:06:05.517Z,51.10
2023-02-11T15:08:36.681Z,42.97
2023-02-11T15:11:10.489Z,46.65
2023-02-11T15:13:38.557Z,41.42
2023-02-11T15:16:10.189Z,39.75
2023-02-11T15:18:44.959Z,40.40
2023-02-11T15:21:12.128Z,38.58
2023-02-11T15:23:40.863Z,36.88
2023-02-11T15:26:18.181Z,32.08
2023-02-11T15:28:52.305Z,41.80
2023-02-11T15:31:23.541Z,38.88
2023-02-11T15:33:52.297Z,38.45
2023-02-11T15:36:28.057Z,35.08
2023-02-11T15:39:29.543Z,39.67
2023-02-11T15:41:56.686Z,40.15
2023-02-11T15:44:29.304Z,38.67
2023-02-11T15:46:56.658Z,41.25
2023-02-11T15:49:25.297Z,51.10
2023-02-11T15:51:55.194Z,43.45
2023-02-11T15:54:27.090Z,38.33
2023-02-11T15:57:05.855Z,46.63
2023-02-11T15:59:39.457Z,48.05
2023-02-11T16:02:21.236Z,40.50
2023-02-11T16:05:05.166Z,53.22
2023-02-11T16:07:47.549Z,61.33
2023-02-11T16:10:21.366Z,64.50
2023-02-11T16:12:55.776Z,59.88
2023-02-11T16:15:31.130Z,60.65
2023-02-11T16:17:59.440Z,63.47
2023-02-11T16:20:27.262Z,66.63
2023-02-11T16:22:56.002Z,63.25
2023-02-11T16:25:24.570Z,57.42
2023-02-11T16:27:54.182Z,61.72
2023-02-11T16:30:35.846Z,49.85
2023-02-11T16:33:05.894Z,51.28
2023-02-11T16:35:34.090Z,59.00
2023-02-11T16:38:01.275Z,54.10
2023-02-11T16:40:28.261Z,58.17
2023-02-11T16:42:56.122Z,55.95
2023-02-11T16:45:23.216Z,58.85
2023-02-11T16:47:50.378Z,65.93
2023-02-11T16:50:25.119Z,82.75
2023-02-11T16:52:52.799Z,89.80
2023-02-11T16:55:21.969Z,113.50
2023-02-11T16:57:51.907Z,116.40
2023-02-11T17:00:19.374Z,125.63
2023-02-11T17:02:46.629Z,140.27
2023-02-11T17:05:23.297Z,125.30
2023-02-11T17:07:50.359Z,113.55
2023-02-11T17:10:25.761Z,110.50
2023-02-11T17:12:53.618Z,91.13
2023-02-11T17:15:20.576Z,82.03
2023-02-11T17:17:48.333Z,85.73
2023-02-11T17:20:15.907Z,78.50
2023-02-11T17:22:42.973Z,77.60
2023-02-11T17:25:10.775Z,64.50
2023-02-11T17:27:37.845Z,86.60
2023-02-11T17:30:05.834Z,95.67
2023-02-11T17:32:32.907Z,65.57
2023-02-11T17:35:00.109Z,82.23
2023-02-11T17:37:27.366Z,96.47
2023-02-11T17:39:54.444Z,105.13
2023-02-11T17:42:21.440Z,93.47
2023-02-11T17:44:48.555Z,99.90
2023-02-11T17:47:15.673Z,87.60
2023-02-11T17:49:42.780Z,80.27
2023-02-11T17:52:10.088Z,73.77
2023-02-11T17:54:38.388Z,74.77
2023-02-11T17:57:05.565Z,86.07
2023-02-11T17:59:35.659Z,86.07
2023-02-11T18:02:04.161Z,78.70
2023-02-11T18:04:32.253Z,80.43
2023-02-11T18:06:59.333Z,62.37
2023-02-11T18:09:26.937Z,69.47
2023-02-11T18:11:54.043Z,90.87
2023-02-11T18:14:22.334Z,82.73
2023-02-11T18:16:53.183Z,93.57
2023-02-11T18:19:21.076Z,79.17
2023-02-11T18:21:50.637Z,97.67
2023-02-11T18:24:18.444Z,91.27
2023-02-11T18:26:45.464Z,88.50
2023-02-11T18:29:12.680Z,70.77
2023-02-11T18:31:39.856Z,81.73
2023-02-11T18:34:10.791Z,80.70
2023-02-11T18:36:37.870Z,102.33
2023-02-11T18:39:06.006Z,116.07
2023-02-11T18:41:33.403Z,213.70
2023-02-11T18:44:03.401Z,271.80
2023-02-11T18:46:31.501Z,220.53
2023-02-11T18:48:58.702Z,226.97
2023-02-11T18:51:26.164Z,304.60
2023-02-11T18:53:54.008Z,303.80
2023-02-11T18:56:23.113Z,310.33
2023-02-11T18:58:51.560Z,269.47
2023-02-11T19:01:24.710Z,177.63
2023-02-11T19:03:52.266Z,108.90
2023-02-11T19:06:38.353Z,146.47
2023-02-11T19:09:12.389Z,94.30
2023-02-11T19:11:54.610Z,84.17
2023-02-11T19:14:27.784Z,149.97
2023-02-11T19:16:57.523Z,272.40
2023-02-11T19:19:28.183Z,297.07
2023-02-11T19:21:57.076Z,228.00
2023-02-11T19:24:25.019Z,305.37
2023-02-11T19:26:53.890Z,276.23
2023-02-11T19:29:21.131Z,248.40
2023-02-11T19:31:48.320Z,201.47
2023-02-11T19:34:17.022Z,151.27
2023-02-11T19:36:44.277Z,129.57
2023-02-11T19:39:11.873Z,141.33
2023-02-11T19:41:39.372Z,154.17
2023-02-11T19:44:08.008Z,86.33
2023-02-11T19:46:37.722Z,108.40
2023-02-11T19:49:05.876Z,122.53
2023-02-11T19:51:33.976Z,108.90
2023-02-11T19:54:01.336Z,104.70
2023-02-11T19:56:29.508Z,162.47
2023-02-11T19:58:56.916Z,223.43
2023-02-11T20:01:26.223Z,216.90
2023-02-11T20:03:55.625Z,354.03
2023-02-11T20:06:25.657Z,313.57
2023-02-11T20:08:58.624Z,318.93
2023-02-11T20:11:28.359Z,227.20
2023-02-11T20:13:56.795Z,230.37
2023-02-11T20:16:40.713Z,170.60
2023-02-11T20:19:19.732Z,157.70
2023-02-11T20:21:48.579Z,175.40
2023-02-11T20:24:18.070Z,280.90
2023-02-11T20:26:47.078Z,338.80
2023-02-11T20:29:15.680Z,230.17
2023-02-11T20:31:43.190Z,221.97
2023-02-11T20:34:11.506Z,162.83
2023-02-11T20:36:41.086Z,149.90
2023-02-11T20:39:11.555Z,146.70
2023-02-11T20:41:41.443Z,175.67
2023-02-11T20:44:11.197Z,150.90
2023-02-11T20:46:42.297Z,124.40
2023-02-11T20:49:19.024Z,156.87
2023-02-11T20:51:47.037Z,118.90
2023-02-11T20:54:19.447Z,112.30
2023-02-11T20:56:48.217Z,134.17
2023-02-11T20:59:17.009Z,125.53
2023-02-11T21:01:49.640Z,142.30
2023-02-11T21:04:20.429Z,122.90
2023-02-11T21:06:53.382Z,133.27
2023-02-11T21:09:26.546Z,134.60
2023-02-11T21:11:55.428Z,124.50
2023-02-11T21:14:24.181Z,117.40
2023-02-11T21:16:52.134Z,151.90
2023-02-11T21:19:20.387Z,147.77
2023-02-11T21:21:48.052Z,128.17
2023-02-11T21:24:16.006Z,140.17
2023-02-11T21:26:43.377Z,147.10
2023-02-11T21:29:11.877Z,149.70
2023-02-11T21:31:39.137Z,159.23
2023-02-11T21:34:07.531Z,166.00
2023-02-11T21:36:34.866Z,168.57
2023-02-11T21:39:04.109Z,174.67
2023-02-11T21:41:31.603Z,185.20
2023-02-11T21:43:58.890Z,185.23
2023-02-11T21:46:26.342Z,213.77
2023-02-11T21:48:53.689Z,162.63
2023-02-11T21:51:23.348Z,123.60
2023-02-11T21:53:59.385Z,99.30
2023-02-11T21:56:31.584Z,244.63
2023-02-11T21:58:59.926Z,180.30
2023-02-11T22:01:30.940Z,262.30
2023-02-11T22:03:59.449Z,273.63
2023-02-11T22:06:33.282Z,347.07
2023-02-11T22:09:08.313Z,304.40
2023-02-11T22:11:36.375Z,175.60
2023-02-11T22:14:03.770Z,240.60
2023-02-11T22:16:31.352Z,161.10
2023-02-11T22:18:59.439Z,232.37
2023-02-11T22:21:27.064Z,215.03
2023-02-11T22:23:55.575Z,133.83
2023-02-11T22:26:24.782Z,90.03
2023-02-11T22:28:52.331Z,87.07
2023-02-11T22:31:28.630Z,98.30
2023-02-11T22:33:56.919Z,113.68
2023-02-11T22:36:32.445Z,250.93
2023-02-11T22:39:06.012Z,151.77
2023-02-11T22:41:33.828Z,196.40
2023-02-11T22:44:00.972Z,165.03
2023-02-11T22:46:28.096Z,303.30
2023-02-11T22:48:55.260Z,349.43
2023-02-11T22:51:24.870Z,301.00
2023-02-11T22:53:59.963Z,296.00
2023-02-11T22:56:28.371Z,264.90
2023-02-11T22:59:00.238Z,250.83
2023-02-11T23:01:28.562Z,271.13
2023-02-11T23:03:56.296Z,276.30
2023-02-11T23:06:28.800Z,149.93
2023-02-11T23:08:56.132Z,112.87
2023-02-11T23:11:26.194Z,93.33
2023-02-11T23:13:53.958Z,74.77
2023-02-11T23:16:24.429Z,71.57
2023-02-11T23:18:52.233Z,69.53
2023-02-11T23:21:25.072Z,71.97
2023-02-11T23:24:04.194Z,64.33
2023-02-11T23:26:31.266Z,61.40
2023-02-11T23:28:59.838Z,60.60
2023-02-11T23:31:30.508Z,76.53
2023-02-11T23:33:57.724Z,66.83
2023-02-11T23:36:24.752Z,62.23
2023-02-11T23:38:54.505Z,74.17
2023-02-11T23:41:22.528Z,119.30
2023-02-11T23:43:57.846Z,110.07
2023-02-11T23:46:26.921Z,109.77
2023-02-11T23:48:54.309Z,118.67
2023-02-11T23:51:21.927Z,132.73
2023-02-11T23:53:51.668Z,138.83
2023-02-11T23:56:21.597Z,146.40
2023-02-11T23:58:50.235Z,137.87
